Time;durP1;ratioP1;P1;durP2;ratioP2;P2;SDS_P1;SDS_P2;PMS_P1;PMS_P2;Temp;Humidity;BMP_temperature;BMP_pressure;BME280_temperature;BME280_humidity;BME280_pressure;Samples;Min_cycle;Max_cycle;Signal;HPM_P1;HPM_P2
2021/05/03 00:00:21;;;;;;;8.77;7.97;;;6.80;55.40;;;;;;6158417;23;20152;-88
2021/05/03 00:02:47;;;;;;;7.53;6.85;;;6.10;55.70;;;;;;6132658;23;20144;-88
2021/05/03 00:05:27;;;;;;;7.63;6.90;;;6.10;55.80;;;;;;6157386;23;20156;-88
2021/05/03 00:07:53;;;;;;;7.70;6.90;;;6.70;55.40;;;;;;6157858;23;20162;-88
2021/05/03 00:10:25;;;;;;;6.30;5.80;;;6.90;54.40;;;;;;6157388;23;20243;-88
2021/05/03 00:12:52;;;;;;;7.65;6.95;;;7.10;53.90;;;;;;6157795;23;20163;-89
2021/05/03 00:15:36;;;;;;;5.72;5.22;;;6.80;53.90;;;;;;6159531;23;20216;-89
2021/05/03 00:18:01;;;;;;;6.03;5.53;;;7.30;53.40;;;;;;6157598;23;20191;-89
2021/05/03 00:20:47;;;;;;;6.37;5.40;;;7.10;52.70;;;;;;6157811;23;20155;-88
2021/05/03 00:23:14;;;;;;;5.85;5.07;;;7.10;52.50;;;;;;6156859;23;20179;-88
2021/05/03 00:25:51;;;;;;;7.00;6.28;;;6.90;51.90;;;;;;6157267;23;20580;-89
2021/05/03 00:28:16;;;;;;;6.28;5.78;;;7.30;51.50;;;;;;6156799;23;20151;-88
2021/05/03 00:30:57;;;;;;;6.40;5.90;;;6.80;51.20;;;;;;6156687;23;20572;-88
2021/05/03 00:33:22;;;;;;;6.18;5.60;;;6.70;51.30;;;;;;6157284;23;20159;-89
2021/05/03 00:35:48;;;;;;;8.10;6.10;;;6.80;51.20;;;;;;6157290;23;20607;-88
2021/05/03 00:38:19;;;;;;;6.80;6.17;;;6.80;51.00;;;;;;6157226;23;20203;-88
2021/05/03 00:40:44;;;;;;;8.27;6.40;;;7.10;51.30;;;;;;6156952;23;20148;-88
2021/05/03 00:43:16;;;;;;;6.30;5.70;;;7.20;51.40;;;;;;6157259;23;20163;-88
2021/05/03 00:45:42;;;;;;;6.13;5.60;;;7.20;51.10;;;;;;6157275;23;20575;-88
2021/05/03 00:48:08;;;;;;;7.10;6.40;;;6.70;50.20;;;;;;6159361;23;20138;-89
2021/05/03 00:50:34;;;;;;;6.00;5.50;;;7.00;50.70;;;;;;6157985;23;20383;-89
2021/05/03 00:53:07;;;;;;;6.27;5.77;;;7.10;50.30;;;;;;6158561;23;20159;-89
2021/05/03 00:55:33;;;;;;;5.50;5.00;;;6.80;49.90;;;;;;6158603;23;20167;-89
2021/05/03 00:57:59;;;;;;;7.45;6.72;;;7.10;50.70;;;;;;6158551;23;20206;-89
2021/05/03 01:00:27;;;;;;;5.60;5.10;;;7.00;50.20;;;;;;6158076;23;20187;-89
2021/05/03 01:02:53;;;;;;;8.35;6.75;;;6.60;50.20;;;;;;6157884;23;20195;-89
2021/05/03 01:05:20;;;;;;;6.07;5.57;;;7.00;50.70;;;;;;6157989;23;20218;-89
2021/05/03 01:07:59;;;;;;;7.30;6.50;;;6.90;51.10;;;;;;6157417;23;20156;-88
2021/05/03 01:10:27;;;;;;;7.05;6.45;;;6.70;50.70;;;;;;6157198;23;20249;-89
2021/05/03 01:13:24;;;;;;;6.78;5.88;;;6.90;51.90;;;;;;6157252;23;20160;-88
2021/05/03 01:15:49;;;;;;;5.90;5.43;;;6.80;51.70;;;;;;6157513;23;20186;-89
2021/05/03 01:18:15;;;;;;;6.80;6.20;;;6.70;52.20;;;;;;6157631;23;20187;-89
2021/05/03 01:20:59;;;;;;;7.20;6.40;;;6.70;52.70;;;;;;6157581;23;20155;-88
2021/05/03 01:23:25;;;;;;;6.93;6.30;;;5.90;51.90;;;;;;6157588;23;20246;-89
2021/05/03 01:25:51;;;;;;;6.97;6.27;;;6.50;52.80;;;;;;6157920;23;20599;-89
2021/05/03 01:28:54;;;;;;;7.40;6.10;;;6.40;52.60;;;;;;6157365;23;20583;-88
2021/05/03 01:31:20;;;;;;;5.72;5.20;;;6.40;53.20;;;;;;6157262;23;20244;-89
2021/05/03 01:34:08;;;;;;;6.10;5.60;;;6.40;52.00;;;;;;6157994;23;20159;-88
2021/05/03 01:36:38;;;;;;;5.78;5.28;;;6.60;52.60;;;;;;6157346;23;20159;-88
2021/05/03 01:39:09;;;;;;;7.35;6.65;;;6.60;51.70;;;;;;6157427;23;20194;-88
2021/05/03 01:41:57;;;;;;;6.45;5.85;;;6.40;51.70;;;;;;6160478;23;20148;-88
2021/05/03 01:44:22;;;;;;;7.20;6.53;;;6.70;51.60;;;;;;6159018;23;20235;-88
2021/05/03 01:47:07;;;;;;;6.20;5.60;;;5.90;50.50;;;;;;6158661;23;20203;-88
2021/05/03 01:49:33;;;;;;;6.68;6.07;;;6.90;51.40;;;;;;6157991;23;20152;-88
2021/05/03 01:52:13;;;;;;;7.20;6.50;;;5.80;50.60;;;;;;6158590;23;20160;-88
2021/05/03 01:54:39;;;;;;;6.15;5.65;;;6.40;51.10;;;;;;6162010;23;20781;-88
2021/05/03 01:57:05;;;;;;;6.97;6.27;;;6.20;51.10;;;;;;6161134;23;20155;-88
2021/05/03 01:59:33;;;;;;;5.55;5.05;;;6.20;51.00;;;;;;6160201;23;20462;-88
2021/05/03 02:01:59;;;;;;;6.95;6.35;;;6.50;51.60;;;;;;6160680;23;20152;-88
2021/05/03 02:04:25;;;;;;;5.88;5.28;;;6.10;50.80;;;;;;6156547;23;20199;-89
2021/05/03 02:06:58;;;;;;;4.93;4.53;;;6.20;50.90;;;;;;6161444;23;20210;-88
2021/05/03 02:09:24;;;;;;;6.50;5.90;;;6.10;50.70;;;;;;6161471;23;20156;-88
2021/05/03 02:11:49;;;;;;;7.00;6.30;;;6.10;50.70;;;;;;6161759;23;20202;-88
2021/05/03 02:14:41;;;;;;;6.07;5.47;;;6.30;51.10;;;;;;6160516;23;20144;-89
2021/05/03 02:17:06;;;;;;;7.43;6.32;;;6.30;51.40;;;;;;6163347;23;20143;-92
2021/05/03 02:19:41;;;;;;;5.47;4.90;;;5.90;50.80;;;;;;6162752;23;20184;-92
2021/05/03 02:22:06;;;;;;;6.00;5.45;;;6.00;50.40;;;;;;6162450;23;20471;-92
2021/05/03 02:24:51;;;;;;;7.87;6.50;;;6.30;50.70;;;;;;6164579;23;20144;-92
2021/05/03 02:27:17;;;;;;;7.03;6.30;;;5.90;51.50;;;;;;6163187;23;20144;-93
2021/05/03 02:29:42;;;;;;;7.23;6.63;;;5.90;51.30;;;;;;6163098;23;20148;-93
2021/05/03 02:32:26;;;;;;;6.70;6.10;;;5.80;51.00;;;;;;6163938;23;20148;-93
2021/05/03 02:34:51;;;;;;;6.90;6.20;;;6.20;51.40;;;;;;6161634;23;20234;-93
2021/05/03 02:37:24;;;;;;;6.93;6.23;;;6.00;51.20;;;;;;6161492;23;20152;-92
2021/05/03 02:43:25;;;;;;;6.85;6.25;;;5.90;51.90;;;;;;6163299;23;20135;-93
2021/05/03 02:45:52;;;;;;;6.68;6.07;;;5.90;51.50;;;;;;6160412;23;20151;-92
2021/05/03 02:48:18;;;;;;;5.25;4.75;;;6.30;51.90;;;;;;6159303;23;20155;-91
2021/05/03 02:50:52;;;;;;;6.53;5.43;;;5.80;51.60;;;;;;6159661;23;20151;-93
2021/05/03 02:53:18;;;;;;;6.43;5.85;;;5.90;51.50;;;;;;6159416;23;20567;-92
2021/05/03 02:55:43;;;;;;;6.07;5.57;;;5.50;51.10;;;;;;6159639;23;20165;-93
2021/05/03 02:58:09;;;;;;;6.97;6.23;;;6.20;51.30;;;;;;6159539;23;20182;-92
2021/05/03 03:00:36;;;;;;;6.50;6.00;;;5.50;50.70;;;;;;6159870;23;20148;-93
2021/05/03 03:03:45;;;;;;;7.13;6.45;;;6.10;51.30;;;;;;6159775;23;20455;-93
2021/05/03 03:06:11;;;;;;;5.35;4.90;;;6.00;51.10;;;;;;6105765;23;20198;-93
2021/05/03 03:08:39;;;;;;;6.10;5.50;;;6.00;50.30;;;;;;6106330;23;20160;-93
2021/05/03 03:11:04;;;;;;;6.78;6.05;;;6.00;50.40;;;;;;6106129;23;20168;-93
2021/05/03 03:13:30;;;;;;;6.13;5.63;;;6.00;50.30;;;;;;6105845;23;20480;-92
2021/05/03 03:16:24;;;;;;;5.47;4.95;;;6.10;50.30;;;;;;6105668;23;20171;-93
2021/05/03 03:18:50;;;;;;;6.00;5.40;;;5.90;50.60;;;;;;6106121;23;20200;-93
2021/05/03 03:21:17;;;;;;;6.57;5.97;;;5.30;50.40;;;;;;6105885;23;20144;-93
2021/05/03 03:24:06;;;;;;;7.20;6.13;;;6.30;51.00;;;;;;6106053;23;20456;-92
2021/05/03 03:26:32;;;;;;;4.72;4.40;;;5.90;50.90;;;;;;6105933;23;20577;-93
2021/05/03 03:29:17;;;;;;;6.73;6.13;;;5.70;50.70;;;;;;6105967;23;20163;-93
2021/05/03 03:31:43;;;;;;;5.47;4.95;;;5.70;51.60;;;;;;6106101;23;20160;-93
2021/05/03 03:34:09;;;;;;;4.90;4.50;;;5.70;51.20;;;;;;6106843;23;20167;-92
2021/05/03 03:36:41;;;;;;;5.33;4.83;;;5.70;50.50;;;;;;6106212;23;20156;-92
2021/05/03 03:39:07;;;;;;;6.72;6.05;;;6.20;51.20;;;;;;6105391;23;20180;-93
2021/05/03 03:41:34;;;;;;;6.22;5.65;;;5.20;50.30;;;;;;6104982;23;20144;-92
2021/05/03 03:44:06;;;;;;;6.10;5.60;;;5.10;49.90;;;;;;6106876;23;20148;-89
2021/05/03 03:46:32;;;;;;;7.35;6.65;;;5.10;50.30;;;;;;6104821;23;20200;-89
2021/05/03 03:48:58;;;;;;;8.40;7.47;;;5.40;51.00;;;;;;6104617;23;20160;-90
2021/05/03 03:51:47;;;;;;;6.60;6.00;;;5.20;51.00;;;;;;6105599;23;20380;-88
2021/05/03 03:54:12;;;;;;;6.85;6.25;;;5.60;51.70;;;;;;6104422;23;20160;-89
2021/05/03 03:56:38;;;;;;;9.90;6.10;;;5.60;51.00;;;;;;6103799;23;20156;-89
2021/05/03 03:59:46;;;;;;;6.30;5.60;;;5.70;50.80;;;;;;6103586;23;20638;-89
2021/05/03 04:02:12;;;;;;;7.88;7.07;;;5.70;51.40;;;;;;6103060;23;20481;-89
2021/05/03 04:04:42;;;;;;;8.40;7.57;;;5.80;51.10;;;;;;6112541;23;20191;-89
2021/05/03 04:26:45;;;;;;;8.18;7.00;;;5.60;50.50;;;;;;6168059;23;20140;-89
2021/05/03 04:29:25;;;;;;;8.73;6.67;;;5.90;50.80;;;;;;6132599;23;20564;-88
2021/05/03 04:31:51;;;;;;;7.82;7.13;;;5.90;51.20;;;;;;6132422;23;20214;-88
2021/05/03 04:34:16;;;;;;;7.63;6.83;;;5.70;51.70;;;;;;6132561;23;20163;-89
2021/05/03 04:36:48;;;;;;;7.20;6.50;;;5.70;51.90;;;;;;6132974;23;20166;-88
2021/05/03 04:39:14;;;;;;;7.43;6.72;;;5.40;51.00;;;;;;6135557;23;20183;-89
2021/05/03 04:41:40;;;;;;;7.83;6.67;;;5.80;51.70;;;;;;6134725;23;20211;-89
2021/05/03 04:44:19;;;;;;;9.37;8.30;;;5.20;50.70;;;;;;6134950;23;20154;-89
2021/05/03 04:46:44;;;;;;;9.45;8.55;;;6.20;51.40;;;;;;6135535;23;20147;-89
2021/05/03 04:49:46;;;;;;;8.40;7.23;;;5.90;51.90;;;;;;6135749;23;20202;-89
2021/05/03 04:52:12;;;;;;;8.38;7.68;;;5.80;52.50;;;;;;6135321;23;20155;-87
2021/05/03 04:55:33;;;;;;;8.27;7.47;;;5.90;52.10;;;;;;6132200;23;20638;-87
2021/05/03 04:57:59;;;;;;;9.25;8.27;;;6.30;52.60;;;;;;6131572;23;20190;-87
2021/05/03 05:04:09;;;;;;;10.27;7.80;;;6.20;52.40;;;;;;6157848;23;20276;-88
2021/05/03 05:06:34;;;;;;;9.02;8.23;;;6.20;52.20;;;;;;6160057;23;20254;-87
2021/05/03 05:09:04;;;;;;;9.20;8.30;;;6.40;52.00;;;;;;6135323;23;20179;-88
2021/05/03 05:11:45;;;;;;;8.25;7.53;;;6.50;52.00;;;;;;6133799;23;20159;-88
2021/05/03 05:14:11;;;;;;;10.65;8.18;;;6.60;51.80;;;;;;6133923;23;20164;-87
2021/05/03 05:17:10;;;;;;;8.87;8.07;;;6.10;51.60;;;;;;6160759;23;20135;-88
2021/05/03 05:19:43;;;;;;;8.40;7.60;;;6.70;52.50;;;;;;6134246;23;20187;-89
2021/05/03 05:22:11;;;;;;;9.35;8.35;;;6.80;52.20;;;;;;6134030;23;20247;-88
2021/05/03 05:24:38;;;;;;;10.60;9.60;;;7.00;52.30;;;;;;6135455;23;20487;-87
2021/05/03 05:27:05;;;;;;;9.43;8.63;;;7.10;52.00;;;;;;6134800;23;20210;-90
2021/05/03 05:29:31;;;;;;;12.85;10.10;;;7.20;52.20;;;;;;6134721;23;20160;-89
2021/05/03 05:32:11;;;;;;;11.20;10.10;;;6.90;51.80;;;;;;6135370;23;20183;-88
2021/05/03 05:34:37;;;;;;;12.45;11.23;;;7.70;52.10;;;;;;6135270;23;20526;-89
2021/05/03 05:37:02;;;;;;;12.50;11.30;;;7.50;52.70;;;;;;6138366;23;20167;-89
2021/05/03 05:39:29;;;;;;;11.37;10.17;;;7.70;55.90;;;;;;6135928;23;20179;-89
2021/05/03 05:41:55;;;;;;;10.40;9.38;;;8.00;60.10;;;;;;6162067;23;20433;-89
2021/05/03 05:44:28;;;;;;;9.93;9.10;;;8.50;63.80;;;;;;6136228;23;20163;-92
2021/05/03 05:46:54;;;;;;;7.97;7.18;;;9.30;64.10;;;;;;6162807;23;20144;-89
2021/05/03 05:49:35;;;;;;;7.67;7.03;;;10.10;60.70;;;;;;6136648;23;20179;-89
2021/05/03 05:52:00;;;;;;;8.40;7.60;;;10.60;54.00;;;;;;6136979;23;20168;-89
2021/05/03 05:54:26;;;;;;;8.50;7.27;;;11.60;48.70;;;;;;6136419;23;20387;-89
2021/05/03 05:57:25;;;;;;;7.03;6.43;;;12.30;42.00;;;;;;6137203;23;20155;-89
2021/05/03 05:59:51;;;;;;;6.97;6.40;;;13.30;39.30;;;;;;6136909;23;20171;-91
2021/05/03 06:02:23;;;;;;;8.20;7.60;;;14.00;35.90;;;;;;6137375;23;20386;-89
2021/05/03 06:05:14;;;;;;;7.53;6.93;;;14.40;33.20;;;;;;6137551;23;20190;-90
2021/05/03 06:07:40;;;;;;;7.40;6.80;;;15.00;33.90;;;;;;6162297;23;20835;-90
2021/05/03 06:10:12;;;;;;;7.40;6.80;;;15.50;32.00;;;;;;6135505;23;20458;-89
2021/05/03 06:12:37;;;;;;;7.40;6.70;;;16.10;30.70;;;;;;6136015;23;20147;-90
2021/05/03 06:15:28;;;;;;;7.73;7.13;;;16.40;28.80;;;;;;6136360;23;20854;-90
2021/05/03 06:17:54;;;;;;;7.33;6.67;;;17.00;29.10;;;;;;6135265;23;20179;-89
2021/05/03 06:20:53;;;;;;;7.40;6.80;;;16.90;28.30;;;;;;6139813;23;20446;-89
2021/05/03 06:23:25;;;;;;;7.30;6.80;;;18.00;26.20;;;;;;6157865;23;20291;-89
2021/05/03 06:25:52;;;;;;;7.53;7.00;;;18.20;26.60;;;;;;6134560;23;20375;-89
2021/05/03 06:28:18;;;;;;;7.37;6.87;;;18.60;26.40;;;;;;6134996;23;20391;-88
2021/05/03 06:30:58;;;;;;;7.70;7.10;;;19.20;26.00;;;;;;6135539;23;20371;-88
2021/05/03 06:33:24;;;;;;;7.50;7.00;;;19.40;25.00;;;;;;6134525;23;20159;-86
2021/05/03 06:36:06;;;;;;;9.87;9.10;;;19.80;24.40;;;;;;6134399;23;20706;-86
2021/05/03 06:38:35;;;;;;;9.80;8.87;;;19.90;23.10;;;;;;6135268;23;20545;-89
2021/05/03 06:41:31;;;;;;;9.13;8.37;;;19.90;22.60;;;;;;6138469;23;20399;-89
2021/05/03 06:43:57;;;;;;;8.93;8.33;;;19.60;23.60;;;;;;6136260;23;20414;-90
2021/05/03 06:46:23;;;;;;;8.67;8.03;;;19.10;24.00;;;;;;6136324;23;20378;-91
2021/05/03 07:13:15;;;;;;;11.33;9.60;;;15.80;29.50;;;;;;6163429;23;20546;-87
2021/05/03 07:15:41;;;;;;;8.90;8.20;;;14.90;31.90;;;;;;6133897;23;20394;-87
2021/05/03 07:18:13;;;;;;;12.23;11.03;;;14.70;33.10;;;;;;6135085;23;20427;-88
2021/05/03 07:20:39;;;;;;;11.50;10.40;;;14.20;33.00;;;;;;6135467;23;20159;-90
2021/05/03 07:23:23;;;;;;;11.03;10.03;;;13.90;34.70;;;;;;6134197;23;20383;-87
2021/05/03 07:25:49;;;;;;;10.00;9.20;;;12.90;35.90;;;;;;6132157;23;20207;-87
2021/05/03 07:28:22;;;;;;;9.80;9.00;;;13.10;37.20;;;;;;6131970;23;20392;-86
2021/05/03 07:30:48;;;;;;;10.90;9.90;;;13.50;36.80;;;;;;6135936;23;20244;-86
2021/05/03 07:33:14;;;;;;;8.23;7.53;;;14.30;36.90;;;;;;6136790;23;20392;-89
2021/05/03 07:35:40;;;;;;;10.33;9.57;;;14.50;36.00;;;;;;6135321;23;20584;-88
2021/05/03 07:38:14;;;;;;;8.63;7.93;;;15.00;33.40;;;;;;6135857;23;20481;-88
2021/05/03 07:40:40;;;;;;;9.10;8.40;;;15.10;32.40;;;;;;6135707;23;20179;-87
2021/05/03 07:43:12;;;;;;;8.70;8.00;;;15.40;32.20;;;;;;6134413;23;20383;-90
2021/05/03 07:45:37;;;;;;;9.30;8.53;;;15.80;32.10;;;;;;6136236;23;20148;-89
2021/05/03 07:48:04;;;;;;;8.83;7.93;;;16.30;30.60;;;;;;6134822;23;20409;-92
2021/05/03 07:50:30;;;;;;;9.80;9.00;;;16.40;29.80;;;;;;6133251;23;20226;-88
2021/05/03 07:52:57;;;;;;;8.67;7.87;;;15.90;29.70;;;;;;6132845;23;20847;-90
2021/05/03 07:55:24;;;;;;;8.97;8.27;;;16.00;31.10;;;;;;6132463;23;20234;-88
2021/05/03 07:57:52;;;;;;;9.50;8.70;;;15.60;29.50;;;;;;6132944;23;20452;-88
2021/05/03 08:00:18;;;;;;;9.13;8.43;;;15.60;31.10;;;;;;6133029;23;20474;-87
2021/05/03 08:02:51;;;;;;;9.47;8.70;;;15.50;30.20;;;;;;6133147;23;20381;-86
2021/05/03 08:05:17;;;;;;;9.07;8.27;;;15.30;30.20;;;;;;6158413;23;20383;-85
2021/05/03 08:07:42;;;;;;;8.57;7.80;;;15.10;30.50;;;;;;6133851;23;20395;-91
2021/05/03 08:10:30;;;;;;;8.40;7.70;;;15.00;31.50;;;;;;6134643;23;20148;-86
2021/05/03 08:12:56;;;;;;;8.53;7.73;;;14.70;29.90;;;;;;6133026;23;20206;-93
2021/05/03 08:15:35;;;;;;;7.63;7.03;;;14.80;31.70;;;;;;6135277;23;20470;-90
2021/05/03 08:18:01;;;;;;;7.63;7.03;;;14.60;32.30;;;;;;6133283;23;20179;-90
2021/05/03 08:20:45;;;;;;;8.30;7.63;;;14.90;29.50;;;;;;6135940;23;20495;-92
2021/05/03 08:23:18;;;;;;;8.77;7.97;;;14.50;29.20;;;;;;6135406;23;20530;-89
2021/05/03 08:29:43;;;;;;;6.97;6.37;;;13.70;31.10;;;;;;6162327;23;20343;-90
2021/05/03 08:32:09;;;;;;;7.27;6.60;;;14.00;30.90;;;;;;6137219;23;20386;-90
2021/05/03 08:34:55;;;;;;;7.63;7.00;;;13.90;30.00;;;;;;6137096;23;20395;-90
2021/05/03 08:37:21;;;;;;;7.67;7.07;;;14.00;29.70;;;;;;6136100;23;20466;-88
2021/05/03 08:43:11;;;;;;;8.07;7.27;;;14.00;29.30;;;;;;6156719;23;20212;-88
2021/05/03 08:45:39;;;;;;;6.83;6.33;;;14.30;29.70;;;;;;6132178;23;20923;-90
2021/05/03 08:53:12;;;;;;;7.27;6.67;;;13.90;30.80;;;;;;6168572;23;20368;-88
2021/05/03 08:55:51;;;;;;;7.70;6.60;;;14.50;30.00;;;;;;6132961;23;20823;-89
2021/05/03 08:58:17;;;;;;;6.10;5.60;;;14.30;29.90;;;;;;6133667;23;20422;-87
2021/05/03 09:00:51;;;;;;;6.70;6.10;;;14.20;29.40;;;;;;6131825;23;20835;-86
2021/05/03 09:03:17;;;;;;;10.17;6.17;;;14.20;29.00;;;;;;6131916;23;20144;-87
2021/05/03 09:06:01;;;;;;;7.13;6.50;;;14.50;29.10;;;;;;6131789;23;20386;-87
2021/05/03 09:08:28;;;;;;;5.80;5.30;;;14.90;28.50;;;;;;6131172;23;20383;-88
2021/05/03 09:11:06;;;;;;;5.53;5.00;;;15.20;27.50;;;;;;6132385;23;20390;-87
2021/05/03 09:13:34;;;;;;;6.23;5.73;;;15.90;27.50;;;;;;6102686;23;20459;-87
2021/05/03 09:16:30;;;;;;;5.87;5.37;;;15.80;26.00;;;;;;6103002;23;20400;-87
2021/05/03 09:18:57;;;;;;;6.60;6.00;;;15.60;26.80;;;;;;6102695;23;20451;-87
2021/05/03 09:22:00;;;;;;;8.00;6.80;;;15.80;27.10;;;;;;6103151;23;20714;-87
2021/05/03 09:24:29;;;;;;;7.27;6.57;;;15.60;26.90;;;;;;6102443;23;20375;-89
2021/05/03 09:27:06;;;;;;;6.63;6.00;;;15.70;27.00;;;;;;6102419;23;20902;-88
2021/05/03 09:29:49;;;;;;;6.60;6.10;;;15.80;27.70;;;;;;6102575;23;20380;-88
2021/05/03 09:32:21;;;;;;;6.50;6.00;;;15.70;27.20;;;;;;6102885;23;20387;-88
2021/05/03 09:35:26;;;;;;;6.13;5.63;;;15.80;27.00;;;;;;6104193;23;20858;-88
2021/05/03 09:37:52;;;;;;;6.30;5.80;;;15.90;26.30;;;;;;6105448;23;20836;-92
2021/05/03 09:40:22;;;;;;;5.73;5.10;;;15.40;27.10;;;;;;6107678;23;20380;-91
2021/05/03 09:43:24;;;;;;;6.28;5.72;;;15.60;26.70;;;;;;6108196;23;20399;-92
2021/05/03 09:45:50;;;;;;;6.00;5.50;;;15.80;26.40;;;;;;6107632;23;20489;-90
2021/05/03 09:48:29;;;;;;;4.40;4.00;;;15.60;25.10;;;;;;6105819;23;20463;-89
2021/05/03 09:50:54;;;;;;;4.60;4.30;;;15.80;24.50;;;;;;6103562;23;20902;-89
2021/05/03 09:53:32;;;;;;;4.13;3.73;;;15.90;24.60;;;;;;6105521;23;20380;-89
2021/05/03 09:55:58;;;;;;;4.20;3.80;;;16.10;24.20;;;;;;6105666;23;20468;-89
2021/05/03 09:58:40;;;;;;;3.87;3.43;;;16.40;24.50;;;;;;6106604;23;20466;-87
2021/05/03 10:01:16;;;;;;;4.20;3.27;;;16.20;24.50;;;;;;6104725;23;20144;-90
2021/05/03 10:03:45;;;;;;;3.83;3.47;;;16.40;23.10;;;;;;6106111;23;20434;-89
2021/05/03 10:06:45;;;;;;;3.77;3.47;;;16.70;21.80;;;;;;6106026;23;20384;-89
2021/05/03 10:09:10;;;;;;;3.80;3.30;;;16.60;21.20;;;;;;6104410;23;20399;-89
2021/05/03 10:11:39;;;;;;;3.87;3.57;;;17.00;20.70;;;;;;6110365;23;20489;-90
2021/05/03 10:14:05;;;;;;;3.17;2.97;;;17.00;20.90;;;;;;6133804;23;20240;-89
2021/05/03 10:16:31;;;;;;;3.37;2.80;;;16.70;21.10;;;;;;6136263;23;20398;-90
2021/05/03 10:19:15;;;;;;;2.90;2.70;;;16.90;21.40;;;;;;6136011;23;20431;-89
2021/05/03 10:21:43;;;;;;;4.67;3.83;;;16.90;20.20;;;;;;6136571;23;20387;-89
2021/05/03 10:24:24;;;;;;;3.33;3.13;;;17.00;20.50;;;;;;6136373;23;20475;-88
2021/05/03 10:26:52;;;;;;;3.33;3.13;;;16.80;21.00;;;;;;6137373;23;20383;-88
2021/05/03 10:29:57;;;;;;;5.63;3.03;;;17.00;20.90;;;;;;6135532;23;20819;-89
2021/05/03 10:32:23;;;;;;;5.53;3.20;;;17.10;21.20;;;;;;6135747;23;20513;-88
2021/05/03 10:34:54;;;;;;;3.17;2.97;;;17.20;20.10;;;;;;6134720;23;20380;-87
2021/05/03 10:37:29;;;;;;;5.03;3.60;;;17.00;20.90;;;;;;6136943;23;20438;-88
2021/05/03 10:40:29;;;;;;;3.63;3.33;;;16.60;20.30;;;;;;6135907;23;20429;-90
2021/05/03 10:43:03;;;;;;;3.50;3.20;;;16.70;21.00;;;;;;6159600;23;20387;-88
2021/05/03 10:52:04;;;;;;;3.77;3.47;;;16.90;22.00;;;;;;6161809;23;20371;-88
2021/05/03 10:57:26;;;;;;;3.60;3.30;;;15.80;20.10;;;;;;6171769;23;20402;-86
2021/05/03 10:59:55;;;;;;;3.03;2.80;;;16.00;20.80;;;;;;6136644;23;20454;-89
2021/05/03 11:05:55;;;;;;;2.83;2.63;;;16.40;20.40;;;;;;6161307;23;20375;-89
2021/05/03 11:08:20;;;;;;;2.87;2.57;;;16.50;21.60;;;;;;6135445;23;20474;-89
2021/05/03 11:11:09;;;;;;;2.60;2.40;;;16.80;20.30;;;;;;6135847;23;20465;-90
2021/05/03 11:13:49;;;;;;;3.17;2.88;;;17.10;21.30;;;;;;6134385;23;20479;-89
2021/05/03 11:16:28;;;;;;;2.90;2.70;;;17.30;19.00;;;;;;6139664;23;20487;-88
2021/05/03 11:19:22;;;;;;;3.30;3.00;;;17.40;20.10;;;;;;6134144;23;20453;-89
2021/05/03 11:21:50;;;;;;;2.80;2.60;;;17.60;18.60;;;;;;6135576;23;20402;-89
2021/05/03 11:25:09;;;;;;;3.07;2.20;;;17.40;18.80;;;;;;6133131;23;20900;-88
2021/05/03 11:27:18;;;;;;;2.50;2.30;;;17.50;19.40;;;;;;6116444;23;20723;-87
2021/05/03 11:30:29;;;;;;;3.00;2.80;;;17.70;18.80;;;;;;6131638;23;20398;-88
2021/05/03 11:32:37;;;;;;;2.83;2.60;;;18.00;18.30;;;;;;6145496;23;20418;-87
2021/05/03 11:38:50;;;;;;;2.50;2.40;;;17.30;18.10;;;;;;6172288;23;20403;-89
2021/05/03 11:41:30;;;;;;;5.00;2.43;;;16.80;18.90;;;;;;6148879;23;20391;-90
2021/05/03 11:44:44;;;;;;;3.13;2.90;;;16.80;21.30;;;;;;6154849;23;20380;-87
2021/05/03 11:47:04;;;;;;;2.57;2.37;;;17.50;19.50;;;;;;6157888;23;20379;-89
2021/05/03 11:50:05;;;;;;;3.40;2.50;;;17.30;18.00;;;;;;6135059;23;20407;-89
2021/05/03 11:52:33;;;;;;;2.67;2.47;;;17.30;18.20;;;;;;6135213;23;20402;-90
2021/05/03 11:55:20;;;;;;;3.47;3.20;;;17.20;18.70;;;;;;6135817;23;20466;-88
2021/05/03 11:57:48;;;;;;;2.30;2.10;;;16.80;19.20;;;;;;6134834;23;20379;-90
2021/05/03 12:00:21;;;;;;;2.23;2.10;;;16.60;19.70;;;;;;6135466;23;20838;-92
2021/05/03 12:02:58;;;;;;;2.10;2.00;;;16.80;19.70;;;;;;6136164;23;20411;-91
2021/05/03 12:05:24;;;;;;;2.33;2.13;;;16.90;18.30;;;;;;6133671;23;20478;-90
2021/05/03 12:08:18;;;;;;;2.23;2.13;;;16.50;18.60;;;;;;6135154;23;20384;-91
2021/05/03 12:10:44;;;;;;;3.10;2.40;;;16.70;18.50;;;;;;6135795;23;20152;-92
2021/05/03 12:13:19;;;;;;;2.83;2.53;;;17.00;20.70;;;;;;6135005;23;20427;-91
2021/05/03 12:15:57;;;;;;;2.80;2.43;;;17.30;18.80;;;;;;6158916;23;20397;-92
2021/05/03 12:18:23;;;;;;;2.23;1.90;;;17.10;18.40;;;;;;6161299;23;20427;-89
2021/05/03 12:21:14;;;;;;;2.17;2.07;;;17.20;19.00;;;;;;6159562;23;20486;-88
2021/05/03 12:23:39;;;;;;;2.83;2.37;;;17.10;18.50;;;;;;6157567;23;20171;-89
2021/05/03 12:26:07;;;;;;;2.30;2.20;;;16.60;19.00;;;;;;6156006;23;20380;-90
2021/05/03 12:28:35;;;;;;;2.70;2.17;;;16.40;20.00;;;;;;6155811;23;20392;-89
2021/05/03 12:31:04;;;;;;;2.20;2.07;;;16.80;20.40;;;;;;6158018;23;20239;-90
2021/05/03 12:33:35;;;;;;;2.30;2.10;;;16.90;19.40;;;;;;6158246;23;20387;-89
2021/05/03 12:36:10;;;;;;;2.20;1.97;;;17.20;19.20;;;;;;6158128;23;20702;-89
2021/05/03 12:38:35;;;;;;;2.70;2.50;;;17.60;18.70;;;;;;6156818;23;20429;-88
2021/05/03 12:41:06;;;;;;;2.50;2.30;;;17.50;18.40;;;;;;6157061;23;20384;-88
2021/05/03 12:43:36;;;;;;;3.37;1.87;;;17.50;19.20;;;;;;6156952;23;20151;-88
2021/05/03 12:46:16;;;;;;;2.60;2.40;;;17.20;18.00;;;;;;6157015;23;20466;-87
2021/05/03 12:49:09;;;;;;;2.20;2.00;;;17.10;18.70;;;;;;6156335;23;20469;-87
2021/05/03 12:51:51;;;;;;;2.37;2.17;;;16.70;18.40;;;;;;6161315;23;20383;-88
2021/05/03 12:54:34;;;;;;;3.07;2.83;;;16.90;19.10;;;;;;6159726;23;20465;-88
2021/05/03 12:57:11;;;;;;;3.60;2.73;;;16.40;18.20;;;;;;6159116;23;20395;-88
2021/05/03 12:59:55;;;;;;;2.87;2.33;;;16.30;19.50;;;;;;6161826;23;20923;-88
2021/05/03 13:28:00;;;;;;;5.43;2.90;;;17.80;19.20;;;;;;6167460;23;20756;-89
2021/05/03 13:28:08;;;;;;;2.03;1.93;;;17.20;17.00;;;;;;6158139;23;20379;-91
2021/05/03 13:30:38;;;;;;;2.23;2.13;;;17.10;18.10;;;;;;6160991;23;20421;-89
2021/05/03 13:33:05;;;;;;;2.57;2.37;;;17.40;18.80;;;;;;6158278;23;20379;-89
2021/05/03 13:35:55;;;;;;;2.07;1.70;;;17.50;18.90;;;;;;6157042;23;20418;-89
2021/05/03 13:38:21;;;;;;;1.90;1.80;;;18.10;18.80;;;;;;6155867;23;20426;-90
2021/05/03 13:40:51;;;;;;;2.60;2.40;;;18.00;17.80;;;;;;6157373;23;20395;-90
2021/05/03 13:43:17;;;;;;;2.60;2.40;;;18.00;16.90;;;;;;6131687;23;20172;-90
2021/05/03 13:45:43;;;;;;;2.50;2.30;;;18.10;18.20;;;;;;6156440;23;20383;-91
2021/05/03 13:48:09;;;;;;;2.17;2.07;;;18.00;17.80;;;;;;6158762;23;20136;-91
2021/05/03 13:50:35;;;;;;;2.37;2.17;;;18.00;19.00;;;;;;6157800;23;20390;-90
2021/05/03 13:53:00;;;;;;;1.90;1.80;;;17.40;18.50;;;;;;6157973;23;20397;-91
2021/05/03 13:55:27;;;;;;;2.50;2.30;;;17.60;18.70;;;;;;6157422;23;20483;-93
2021/05/03 13:57:53;;;;;;;1.97;1.73;;;17.50;17.80;;;;;;6158516;23;20155;-88
2021/05/03 14:00:32;;;;;;;2.00;1.90;;;18.00;18.40;;;;;;6160716;23;20394;-92
2021/05/03 14:02:58;;;;;;;1.90;1.80;;;18.00;17.20;;;;;;6159702;23;20168;-89
2021/05/03 14:05:25;;;;;;;2.30;1.70;;;18.30;18.30;;;;;;6159566;23;20409;-89
2021/05/03 14:07:51;;;;;;;2.97;1.83;;;18.60;18.00;;;;;;6159330;23;20159;-89
2021/05/03 14:10:18;;;;;;;2.17;1.97;;;19.00;17.30;;;;;;6158192;23;20399;-89
2021/05/03 14:13:14;;;;;;;2.17;1.97;;;19.00;17.10;;;;;;6136423;23;20423;-90
2021/05/03 14:15:40;;;;;;;3.27;1.80;;;19.10;16.80;;;;;;6169707;23;20446;-90
2021/05/03 14:18:08;;;;;;;2.40;2.20;;;19.20;17.00;;;;;;6166227;23;20778;-90
2021/05/03 14:20:33;;;;;;;2.00;1.60;;;19.40;17.20;;;;;;6167099;23;20483;-91
2021/05/03 14:23:01;;;;;;;2.40;1.80;;;19.50;16.20;;;;;;6163750;23;20379;-90
2021/05/03 14:25:30;;;;;;;1.93;1.80;;;19.10;15.30;;;;;;6161867;23;20582;-89
2021/05/03 14:28:08;;;;;;;1.50;1.40;;;18.80;17.10;;;;;;6158497;23;20383;-89
2021/05/03 14:30:44;;;;;;;2.10;1.90;;;18.40;16.90;;;;;;6158604;23;20451;-90
2021/05/03 14:33:20;;;;;;;2.97;2.10;;;18.30;17.70;;;;;;6159339;23;20382;-90
2021/05/03 14:35:47;;;;;;;1.60;1.50;;;18.10;16.70;;;;;;6158012;23;20390;-90
2021/05/03 14:38:13;;;;;;;1.60;1.50;;;17.70;17.40;;;;;;6158385;23;20479;-89
2021/05/03 14:40:59;;;;;;;3.20;2.00;;;17.40;17.60;;;;;;6162261;23;20514;-90
2021/05/03 14:43:28;;;;;;;2.77;1.97;;;17.50;17.20;;;;;;6161646;23;20379;-91
2021/05/03 14:51:47;;;;;;;2.23;1.50;;;18.20;16.90;;;;;;6173408;23;20439;-90
2021/05/03 14:57:33;;;;;;;1.70;1.60;;;18.40;16.90;;;;;;6162639;23;20371;-93
2021/05/03 14:59:59;;;;;;;1.67;1.57;;;18.20;16.70;;;;;;6162587;23;20421;-93
2021/05/03 15:02:26;;;;;;;2.03;1.90;;;17.90;16.80;;;;;;6162557;23;20379;-92
2021/05/03 15:04:52;;;;;;;2.00;1.60;;;17.70;16.80;;;;;;6160422;23;20140;-93
2021/05/03 15:07:20;;;;;;;1.43;1.30;;;17.70;17.20;;;;;;6163849;23;20374;-92
2021/05/03 15:09:50;;;;;;;2.50;1.80;;;17.70;17.40;;;;;;6160384;23;20152;-92
2021/05/03 15:12:29;;;;;;;1.60;1.50;;;17.80;17.50;;;;;;6157041;23;20453;-92